sensor_id;sensor_type;location;lat;lon;timestamp;temperature;humidity
54930;DHT22;40833;53.238;6.576;2022-07-06T00:01:29;15.10;99.90
54930;DHT22;40833;53.238;6.576;2022-07-06T00:03:54;15.10;99.90
54930;DHT22;40833;53.238;6.576;2022-07-06T00:06:20;15.10;99.90
54930;DHT22;40833;53.238;6.576;2022-07-06T00:08:45;15.10;99.90
54930;DHT22;40833;53.238;6.576;2022-07-06T00:11:11;15.10;99.90
54930;DHT22;40833;53.238;6.576;2022-07-06T00:13:37;15.10;99.90
54930;DHT22;40833;53.238;6.576;2022-07-06T00:16:03;15.10;99.90
54930;DHT22;40833;53.238;6.576;2022-07-06T00:18:29;15.10;99.90
54930;DHT22;40833;53.238;6.576;2022-07-06T00:20:55;15.20;99.90
54930;DHT22;40833;53.238;6.576;2022-07-06T00:23:21;15.20;99.90
54930;DHT22;40833;53.238;6.576;2022-07-06T00:25:46;15.20;99.90
54930;DHT22;40833;53.238;6.576;2022-07-06T00:28:14;15.20;99.90
54930;DHT22;40833;53.238;6.576;2022-07-06T00:30:39;15.10;99.90
54930;DHT22;40833;53.238;6.576;2022-07-06T00:33:05;15.10;99.90
54930;DHT22;40833;53.238;6.576;2022-07-06T00:35:31;15.00;99.90
54930;DHT22;40833;53.238;6.576;2022-07-06T00:37:57;15.00;99.90
54930;DHT22;40833;53.238;6.576;2022-07-06T00:40:22;15.00;99.90
54930;DHT22;40833;53.238;6.576;2022-07-06T00:42:48;15.00;99.90
54930;DHT22;40833;53.238;6.576;2022-07-06T00:45:16;14.90;99.90
54930;DHT22;40833;53.238;6.576;2022-07-06T00:47:42;14.90;99.90
54930;DHT22;40833;53.238;6.576;2022-07-06T00:50:10;14.90;99.90
54930;DHT22;40833;53.238;6.576;2022-07-06T00:53:10;14.90;99.90
54930;DHT22;40833;53.238;6.576;2022-07-06T00:55:37;14.90;99.90
54930;DHT22;40833;53.238;6.576;2022-07-06T00:58:06;14.90;99.90
54930;DHT22;40833;53.238;6.576;2022-07-06T01:00:32;14.80;99.90
54930;DHT22;40833;53.238;6.576;2022-07-06T01:02:58;14.80;99.90
54930;DHT22;40833;53.238;6.576;2022-07-06T01:05:24;14.80;99.90
54930;DHT22;40833;53.238;6.576;2022-07-06T01:07:51;14.80;99.90
54930;DHT22;40833;53.238;6.576;2022-07-06T01:10:19;14.80;99.90
54930;DHT22;40833;53.238;6.576;2022-07-06T01:12:46;14.80;99.90
54930;DHT22;40833;53.238;6.576;2022-07-06T01:15:17;14.80;99.90
54930;DHT22;40833;53.238;6.576;2022-07-06T01:17:43;14.80;99.90
54930;DHT22;40833;53.238;6.576;2022-07-06T01:20:22;14.80;99.90
54930;DHT22;40833;53.238;6.576;2022-07-06T01:22:50;14.70;99.90
54930;DHT22;40833;53.238;6.576;2022-07-06T01:25:16;14.70;99.90
54930;DHT22;40833;53.238;6.576;2022-07-06T01:27:43;14.70;99.90
54930;DHT22;40833;53.238;6.576;2022-07-06T01:30:13;14.70;99.90
54930;DHT22;40833;53.238;6.576;2022-07-06T01:32:40;14.70;99.90
54930;DHT22;40833;53.238;6.576;2022-07-06T01:35:09;14.70;99.90
54930;DHT22;40833;53.238;6.576;2022-07-06T01:37:35;14.60;99.90
54930;DHT22;40833;53.238;6.576;2022-07-06T01:40:03;14.60;99.90
54930;DHT22;40833;53.238;6.576;2022-07-06T01:42:30;14.60;99.90
54930;DHT22;40833;53.238;6.576;2022-07-06T01:44:56;14.60;99.90
54930;DHT22;40833;53.238;6.576;2022-07-06T01:47:22;14.50;99.90
54930;DHT22;40833;53.238;6.576;2022-07-06T01:49:48;14.40;99.90
54930;DHT22;40833;53.238;6.576;2022-07-06T01:52:14;14.40;99.90
54930;DHT22;40833;53.238;6.576;2022-07-06T01:54:40;14.30;99.90
54930;DHT22;40833;53.238;6.576;2022-07-06T01:57:05;14.50;99.90
54930;DHT22;40833;53.238;6.576;2022-07-06T01:59:31;14.60;99.90
54930;DHT22;40833;53.238;6.576;2022-07-06T02:01:57;14.60;99.90
54930;DHT22;40833;53.238;6.576;2022-07-06T02:04:22;14.60;99.90
54930;DHT22;40833;53.238;6.576;2022-07-06T02:06:48;14.60;99.90
54930;DHT22;40833;53.238;6.576;2022-07-06T02:09:14;14.60;99.90
54930;DHT22;40833;53.238;6.576;2022-07-06T02:11:41;14.60;99.90
54930;DHT22;40833;53.238;6.576;2022-07-06T02:14:06;14.50;99.90
54930;DHT22;40833;53.238;6.576;2022-07-06T02:16:32;14.50;99.90
54930;DHT22;40833;53.238;6.576;2022-07-06T02:18:58;14.40;99.90
54930;DHT22;40833;53.238;6.576;2022-07-06T02:21:23;14.40;99.90
54930;DHT22;40833;53.238;6.576;2022-07-06T02:23:49;14.30;99.90
54930;DHT22;40833;53.238;6.576;2022-07-06T02:26:15;14.30;99.90
54930;DHT22;40833;53.238;6.576;2022-07-06T02:28:40;14.20;99.90
54930;DHT22;40833;53.238;6.576;2022-07-06T02:31:06;14.10;99.90
54930;DHT22;40833;53.238;6.576;2022-07-06T02:33:32;14.10;99.90
54930;DHT22;40833;53.238;6.576;2022-07-06T02:35:57;13.90;99.90
54930;DHT22;40833;53.238;6.576;2022-07-06T02:38:23;13.90;99.90
54930;DHT22;40833;53.238;6.576;2022-07-06T02:40:49;13.90;99.90
54930;DHT22;40833;53.238;6.576;2022-07-06T02:43:14;13.80;99.90
54930;DHT22;40833;53.238;6.576;2022-07-06T02:45:40;13.80;99.90
54930;DHT22;40833;53.238;6.576;2022-07-06T02:48:06;13.70;99.90
54930;DHT22;40833;53.238;6.576;2022-07-06T02:50:31;13.70;99.90
54930;DHT22;40833;53.238;6.576;2022-07-06T02:52:57;13.60;99.90
54930;DHT22;40833;53.238;6.576;2022-07-06T02:55:24;13.50;99.90
54930;DHT22;40833;53.238;6.576;2022-07-06T02:57:50;13.50;99.90
54930;DHT22;40833;53.238;6.576;2022-07-06T03:00:16;13.40;99.90
54930;DHT22;40833;53.238;6.576;2022-07-06T03:02:42;13.40;99.90
54930;DHT22;40833;53.238;6.576;2022-07-06T03:05:08;13.40;99.90
54930;DHT22;40833;53.238;6.576;2022-07-06T03:07:33;13.30;99.90
54930;DHT22;40833;53.238;6.576;2022-07-06T03:09:59;13.30;99.90
54930;DHT22;40833;53.238;6.576;2022-07-06T03:12:25;13.20;99.90
54930;DHT22;40833;53.238;6.576;2022-07-06T03:14:51;13.20;99.90
54930;DHT22;40833;53.238;6.576;2022-07-06T03:17:17;13.20;99.90
54930;DHT22;40833;53.238;6.576;2022-07-06T03:19:42;13.10;99.90
54930;DHT22;40833;53.238;6.576;2022-07-06T03:22:08;13.10;99.90
54930;DHT22;40833;53.238;6.576;2022-07-06T03:24:33;13.10;99.90
54930;DHT22;40833;53.238;6.576;2022-07-06T03:26:59;13.10;99.90
54930;DHT22;40833;53.238;6.576;2022-07-06T03:29:25;13.00;99.90
54930;DHT22;40833;53.238;6.576;2022-07-06T03:31:50;13.00;99.90
54930;DHT22;40833;53.238;6.576;2022-07-06T03:34:16;13.00;99.90
54930;DHT22;40833;53.238;6.576;2022-07-06T03:36:42;13.00;99.90
54930;DHT22;40833;53.238;6.576;2022-07-06T03:39:07;13.00;99.90
54930;DHT22;40833;53.238;6.576;2022-07-06T03:41:33;12.90;99.90
54930;DHT22;40833;53.238;6.576;2022-07-06T03:43:59;12.90;99.90
54930;DHT22;40833;53.238;6.576;2022-07-06T03:46:25;12.80;99.90
54930;DHT22;40833;53.238;6.576;2022-07-06T03:48:51;12.80;99.90
54930;DHT22;40833;53.238;6.576;2022-07-06T03:51:16;12.80;99.90
54930;DHT22;40833;53.238;6.576;2022-07-06T03:53:43;12.80;99.90
54930;DHT22;40833;53.238;6.576;2022-07-06T03:56:09;12.80;99.90
54930;DHT22;40833;53.238;6.576;2022-07-06T03:58:54;12.70;99.90
54930;DHT22;40833;53.238;6.576;2022-07-06T04:01:20;12.70;99.90
54930;DHT22;40833;53.238;6.576;2022-07-06T04:03:45;12.70;99.90
54930;DHT22;40833;53.238;6.576;2022-07-06T04:06:11;12.70;99.90
54930;DHT22;40833;53.238;6.576;2022-07-06T04:08:37;12.80;99.90
54930;DHT22;40833;53.238;6.576;2022-07-06T04:11:03;12.80;99.90
54930;DHT22;40833;53.238;6.576;2022-07-06T04:13:29;12.90;99.90
54930;DHT22;40833;53.238;6.576;2022-07-06T04:15:54;12.90;99.90
54930;DHT22;40833;53.238;6.576;2022-07-06T04:18:20;13.00;99.90
54930;DHT22;40833;53.238;6.576;2022-07-06T04:20:46;13.10;99.90
54930;DHT22;40833;53.238;6.576;2022-07-06T04:23:12;13.10;99.90
54930;DHT22;40833;53.238;6.576;2022-07-06T04:25:37;13.10;99.90
54930;DHT22;40833;53.238;6.576;2022-07-06T04:28:03;13.20;99.90
54930;DHT22;40833;53.238;6.576;2022-07-06T04:30:29;13.30;99.90
54930;DHT22;40833;53.238;6.576;2022-07-06T04:32:55;13.30;99.90
54930;DHT22;40833;53.238;6.576;2022-07-06T04:35:21;13.30;99.90
54930;DHT22;40833;53.238;6.576;2022-07-06T04:37:47;13.40;99.90
54930;DHT22;40833;53.238;6.576;2022-07-06T04:40:14;13.30;99.90
54930;DHT22;40833;53.238;6.576;2022-07-06T04:42:40;13.30;99.90
54930;DHT22;40833;53.238;6.576;2022-07-06T04:45:06;13.30;99.90
54930;DHT22;40833;53.238;6.576;2022-07-06T04:47:32;13.20;99.90
54930;DHT22;40833;53.238;6.576;2022-07-06T04:49:57;13.10;99.90
54930;DHT22;40833;53.238;6.576;2022-07-06T04:52:23;13.10;99.90
54930;DHT22;40833;53.238;6.576;2022-07-06T04:54:49;13.10;99.90
54930;DHT22;40833;53.238;6.576;2022-07-06T04:57:15;13.10;99.90
54930;DHT22;40833;53.238;6.576;2022-07-06T04:59:40;13.20;99.90
54930;DHT22;40833;53.238;6.576;2022-07-06T05:02:06;13.20;99.90
54930;DHT22;40833;53.238;6.576;2022-07-06T05:04:32;13.30;99.90
54930;DHT22;40833;53.238;6.576;2022-07-06T05:06:58;13.40;99.90
54930;DHT22;40833;53.238;6.576;2022-07-06T05:09:24;13.50;99.90
54930;DHT22;40833;53.238;6.576;2022-07-06T05:11:50;13.60;99.90
54930;DHT22;40833;53.238;6.576;2022-07-06T05:14:15;13.70;99.90
54930;DHT22;40833;53.238;6.576;2022-07-06T05:16:41;13.90;99.90
54930;DHT22;40833;53.238;6.576;2022-07-06T05:19:07;14.00;99.90
54930;DHT22;40833;53.238;6.576;2022-07-06T05:21:33;14.10;99.90
54930;DHT22;40833;53.238;6.576;2022-07-06T05:23:58;14.20;99.90
54930;DHT22;40833;53.238;6.576;2022-07-06T05:26:24;14.30;99.90
54930;DHT22;40833;53.238;6.576;2022-07-06T05:28:50;14.40;99.90
54930;DHT22;40833;53.238;6.576;2022-07-06T05:31:15;14.50;99.90
54930;DHT22;40833;53.238;6.576;2022-07-06T05:33:41;14.70;99.90
54930;DHT22;40833;53.238;6.576;2022-07-06T05:36:07;15.40;99.90
54930;DHT22;40833;53.238;6.576;2022-07-06T05:38:33;14.80;99.90
54930;DHT22;40833;53.238;6.576;2022-07-06T05:40:59;14.80;99.90
54930;DHT22;40833;53.238;6.576;2022-07-06T05:43:24;15.00;99.90
54930;DHT22;40833;53.238;6.576;2022-07-06T05:45:50;14.90;99.90
54930;DHT22;40833;53.238;6.576;2022-07-06T05:48:16;14.80;99.90
54930;DHT22;40833;53.238;6.576;2022-07-06T05:51:00;14.80;99.90
54930;DHT22;40833;53.238;6.576;2022-07-06T05:53:25;14.70;99.90
54930;DHT22;40833;53.238;6.576;2022-07-06T05:55:51;14.70;99.90
54930;DHT22;40833;53.238;6.576;2022-07-06T05:58:17;14.70;99.90
54930;DHT22;40833;53.238;6.576;2022-07-06T06:00:42;14.70;99.90
54930;DHT22;40833;53.238;6.576;2022-07-06T06:03:08;14.70;99.90
54930;DHT22;40833;53.238;6.576;2022-07-06T06:05:34;14.70;99.90
54930;DHT22;40833;53.238;6.576;2022-07-06T06:08:00;14.70;99.90
54930;DHT22;40833;53.238;6.576;2022-07-06T06:10:26;14.80;99.90
54930;DHT22;40833;53.238;6.576;2022-07-06T06:12:51;14.90;99.90
54930;DHT22;40833;53.238;6.576;2022-07-06T06:15:17;15.00;99.90
54930;DHT22;40833;53.238;6.576;2022-07-06T06:17:43;15.10;99.90
54930;DHT22;40833;53.238;6.576;2022-07-06T06:20:12;15.20;99.90
54930;DHT22;40833;53.238;6.576;2022-07-06T06:22:49;15.30;99.90
54930;DHT22;40833;53.238;6.576;2022-07-06T06:25:28;15.20;99.90
54930;DHT22;40833;53.238;6.576;2022-07-06T06:27:54;15.30;99.90
54930;DHT22;40833;53.238;6.576;2022-07-06T06:30:20;15.40;99.90
54930;DHT22;40833;53.238;6.576;2022-07-06T06:32:45;15.40;99.90
54930;DHT22;40833;53.238;6.576;2022-07-06T06:35:11;15.50;99.90
54930;DHT22;40833;53.238;6.576;2022-07-06T06:37:37;15.40;99.90
54930;DHT22;40833;53.238;6.576;2022-07-06T06:40:04;15.40;99.90
54930;DHT22;40833;53.238;6.576;2022-07-06T06:42:30;15.40;99.90
54930;DHT22;40833;53.238;6.576;2022-07-06T06:44:56;15.50;99.90
54930;DHT22;40833;53.238;6.576;2022-07-06T06:47:22;15.60;99.90
54930;DHT22;40833;53.238;6.576;2022-07-06T06:49:47;15.80;99.90
54930;DHT22;40833;53.238;6.576;2022-07-06T06:52:13;16.00;99.90
54930;DHT22;40833;53.238;6.576;2022-07-06T06:54:39;16.20;99.90
54930;DHT22;40833;53.238;6.576;2022-07-06T06:57:05;16.40;99.90
54930;DHT22;40833;53.238;6.576;2022-07-06T06:59:30;16.50;99.90
54930;DHT22;40833;53.238;6.576;2022-07-06T07:01:56;16.50;99.90
54930;DHT22;40833;53.238;6.576;2022-07-06T07:04:22;16.60;99.90
54930;DHT22;40833;53.238;6.576;2022-07-06T07:06:48;16.70;99.90
54930;DHT22;40833;53.238;6.576;2022-07-06T07:09:13;16.90;99.90
54930;DHT22;40833;53.238;6.576;2022-07-06T07:11:39;17.00;99.90
54930;DHT22;40833;53.238;6.576;2022-07-06T07:14:05;17.10;99.90
54930;DHT22;40833;53.238;6.576;2022-07-06T07:16:30;17.00;99.90
54930;DHT22;40833;53.238;6.576;2022-07-06T07:18:56;17.00;99.90
54930;DHT22;40833;53.238;6.576;2022-07-06T07:21:22;16.90;99.90
54930;DHT22;40833;53.238;6.576;2022-07-06T07:23:48;16.80;99.90
54930;DHT22;40833;53.238;6.576;2022-07-06T07:26:16;16.70;99.90
54930;DHT22;40833;53.238;6.576;2022-07-06T07:28:42;16.70;99.90
54930;DHT22;40833;53.238;6.576;2022-07-06T07:31:07;16.70;99.90
54930;DHT22;40833;53.238;6.576;2022-07-06T07:33:34;16.60;99.90
54930;DHT22;40833;53.238;6.576;2022-07-06T07:36:00;16.60;99.90
54930;DHT22;40833;53.238;6.576;2022-07-06T07:38:25;16.50;99.90
54930;DHT22;40833;53.238;6.576;2022-07-06T07:40:53;16.50;99.90
54930;DHT22;40833;53.238;6.576;2022-07-06T07:43:19;16.70;99.90
54930;DHT22;40833;53.238;6.576;2022-07-06T07:45:45;16.90;99.90
54930;DHT22;40833;53.238;6.576;2022-07-06T07:48:11;17.10;99.90
54930;DHT22;40833;53.238;6.576;2022-07-06T07:50:37;17.00;99.90
54930;DHT22;40833;53.238;6.576;2022-07-06T07:53:02;17.10;99.90
54930;DHT22;40833;53.238;6.576;2022-07-06T07:55:28;17.20;99.90
54930;DHT22;40833;53.238;6.576;2022-07-06T07:57:54;17.40;99.90
54930;DHT22;40833;53.238;6.576;2022-07-06T08:00:20;17.70;99.90
54930;DHT22;40833;53.238;6.576;2022-07-06T08:02:47;17.70;99.90
54930;DHT22;40833;53.238;6.576;2022-07-06T08:05:13;17.80;99.90
54930;DHT22;40833;53.238;6.576;2022-07-06T08:07:41;17.90;99.90
54930;DHT22;40833;53.238;6.576;2022-07-06T08:10:08;17.90;99.90
54930;DHT22;40833;53.238;6.576;2022-07-06T08:12:35;17.90;99.90
54930;DHT22;40833;53.238;6.576;2022-07-06T08:15:01;17.80;99.90
54930;DHT22;40833;53.238;6.576;2022-07-06T08:17:27;17.80;99.90
54930;DHT22;40833;53.238;6.576;2022-07-06T08:19:53;17.80;99.90
54930;DHT22;40833;53.238;6.576;2022-07-06T08:22:18;17.70;99.90
54930;DHT22;40833;53.238;6.576;2022-07-06T08:24:44;17.70;99.90
54930;DHT22;40833;53.238;6.576;2022-07-06T08:27:10;17.80;99.90
54930;DHT22;40833;53.238;6.576;2022-07-06T08:29:35;17.80;99.90
54930;DHT22;40833;53.238;6.576;2022-07-06T08:32:01;17.80;99.90
54930;DHT22;40833;53.238;6.576;2022-07-06T08:34:27;17.90;99.90
54930;DHT22;40833;53.238;6.576;2022-07-06T08:36:53;18.00;99.90
54930;DHT22;40833;53.238;6.576;2022-07-06T08:39:19;18.10;99.90
54930;DHT22;40833;53.238;6.576;2022-07-06T08:41:48;18.20;99.90
54930;DHT22;40833;53.238;6.576;2022-07-06T08:44:15;18.40;99.90
54930;DHT22;40833;53.238;6.576;2022-07-06T08:46:41;18.40;99.90
54930;DHT22;40833;53.238;6.576;2022-07-06T08:49:07;18.40;99.90
54930;DHT22;40833;53.238;6.576;2022-07-06T08:51:35;18.50;99.90
54930;DHT22;40833;53.238;6.576;2022-07-06T08:54:02;18.50;99.90
54930;DHT22;40833;53.238;6.576;2022-07-06T08:56:28;18.60;99.90
54930;DHT22;40833;53.238;6.576;2022-07-06T08:58:55;18.70;99.90
54930;DHT22;40833;53.238;6.576;2022-07-06T09:01:21;18.70;99.90
54930;DHT22;40833;53.238;6.576;2022-07-06T09:03:49;18.70;99.90
54930;DHT22;40833;53.238;6.576;2022-07-06T09:06:17;18.70;99.90
54930;DHT22;40833;53.238;6.576;2022-07-06T09:08:45;18.70;99.90
54930;DHT22;40833;53.238;6.576;2022-07-06T09:11:12;18.70;99.90
54930;DHT22;40833;53.238;6.576;2022-07-06T09:13:37;18.60;99.90
54930;DHT22;40833;53.238;6.576;2022-07-06T09:16:14;18.60;99.90
54930;DHT22;40833;53.238;6.576;2022-07-06T09:18:41;18.50;99.90
54930;DHT22;40833;53.238;6.576;2022-07-06T09:21:08;18.50;99.90
54930;DHT22;40833;53.238;6.576;2022-07-06T09:23:35;18.60;99.90
54930;DHT22;40833;53.238;6.576;2022-07-06T09:26:02;18.60;99.90
54930;DHT22;40833;53.238;6.576;2022-07-06T09:28:44;18.60;99.90
54930;DHT22;40833;53.238;6.576;2022-07-06T09:31:11;18.70;99.90
54930;DHT22;40833;53.238;6.576;2022-07-06T09:33:37;19.00;99.90
54930;DHT22;40833;53.238;6.576;2022-07-06T09:36:04;19.20;99.90
54930;DHT22;40833;53.238;6.576;2022-07-06T09:38:31;19.50;99.90
54930;DHT22;40833;53.238;6.576;2022-07-06T09:40:57;19.50;99.90
54930;DHT22;40833;53.238;6.576;2022-07-06T09:43:24;19.40;99.90
54930;DHT22;40833;53.238;6.576;2022-07-06T09:48:18;19.30;99.90
54930;DHT22;40833;53.238;6.576;2022-07-06T09:50:57;19.60;99.90
54930;DHT22;40833;53.238;6.576;2022-07-06T09:53:26;19.70;99.90
54930;DHT22;40833;53.238;6.576;2022-07-06T09:55:54;19.80;99.90
54930;DHT22;40833;53.238;6.576;2022-07-06T09:58:20;19.70;99.90
54930;DHT22;40833;53.238;6.576;2022-07-06T10:00:47;19.70;99.90
54930;DHT22;40833;53.238;6.576;2022-07-06T10:03:14;19.60;99.90
54930;DHT22;40833;53.238;6.576;2022-07-06T10:05:45;19.50;99.90
54930;DHT22;40833;53.238;6.576;2022-07-06T10:08:13;19.50;99.90
54930;DHT22;40833;53.238;6.576;2022-07-06T10:10:40;19.50;99.90
54930;DHT22;40833;53.238;6.576;2022-07-06T10:13:07;19.60;99.90
54930;DHT22;40833;53.238;6.576;2022-07-06T10:15:35;19.80;99.90
54930;DHT22;40833;53.238;6.576;2022-07-06T10:18:07;19.90;99.90
54930;DHT22;40833;53.238;6.576;2022-07-06T10:20:35;20.00;99.90
54930;DHT22;40833;53.238;6.576;2022-07-06T10:23:05;20.00;99.90
54930;DHT22;40833;53.238;6.576;2022-07-06T10:25:32;20.10;99.90
54930;DHT22;40833;53.238;6.576;2022-07-06T10:27:59;20.10;99.90
54930;DHT22;40833;53.238;6.576;2022-07-06T10:30:25;20.20;99.90
54930;DHT22;40833;53.238;6.576;2022-07-06T10:32:52;20.20;99.90
54930;DHT22;40833;53.238;6.576;2022-07-06T10:35:20;20.30;99.90
54930;DHT22;40833;53.238;6.576;2022-07-06T10:38:05;20.30;99.90
54930;DHT22;40833;53.238;6.576;2022-07-06T10:40:32;20.30;99.90
54930;DHT22;40833;53.238;6.576;2022-07-06T10:43:17;20.30;99.90
54930;DHT22;40833;53.238;6.576;2022-07-06T10:50:41;20.80;99.90
54930;DHT22;40833;53.238;6.576;2022-07-06T10:53:13;21.00;99.90
54930;DHT22;40833;53.238;6.576;2022-07-06T10:55:47;21.10;99.90
54930;DHT22;40833;53.238;6.576;2022-07-06T10:58:13;21.20;99.90
54930;DHT22;40833;53.238;6.576;2022-07-06T11:00:55;21.20;99.90
54930;DHT22;40833;53.238;6.576;2022-07-06T11:03:34;21.10;99.90
54930;DHT22;40833;53.238;6.576;2022-07-06T11:09:04;20.90;99.90
54930;DHT22;40833;53.238;6.576;2022-07-06T11:16:32;21.20;99.90
54930;DHT22;40833;53.238;6.576;2022-07-06T11:19:04;21.40;99.90
54930;DHT22;40833;53.238;6.576;2022-07-06T11:24:14;21.90;99.10
54930;DHT22;40833;53.238;6.576;2022-07-06T11:26:41;21.80;99.40
54930;DHT22;40833;53.238;6.576;2022-07-06T11:29:09;21.60;99.70
54930;DHT22;40833;53.238;6.576;2022-07-06T11:31:37;21.60;99.50
54930;DHT22;40833;53.238;6.576;2022-07-06T11:34:07;21.70;98.60
54930;DHT22;40833;53.238;6.576;2022-07-06T11:36:34;22.00;98.00
54930;DHT22;40833;53.238;6.576;2022-07-06T11:39:00;21.90;97.80
54930;DHT22;40833;53.238;6.576;2022-07-06T11:41:26;21.80;97.40
54930;DHT22;40833;53.238;6.576;2022-07-06T11:43:52;21.80;95.90
54930;DHT22;40833;53.238;6.576;2022-07-06T11:46:32;22.00;95.60
54930;DHT22;40833;53.238;6.576;2022-07-06T11:49:02;22.30;95.10
54930;DHT22;40833;53.238;6.576;2022-07-06T11:51:29;22.30;95.10
54930;DHT22;40833;53.238;6.576;2022-07-06T11:53:57;22.60;95.60
54930;DHT22;40833;53.238;6.576;2022-07-06T11:56:26;22.70;94.10
54930;DHT22;40833;53.238;6.576;2022-07-06T11:58:58;22.70;92.70
54930;DHT22;40833;53.238;6.576;2022-07-06T12:01:25;22.40;92.70
54930;DHT22;40833;53.238;6.576;2022-07-06T12:03:53;22.20;93.70
54930;DHT22;40833;53.238;6.576;2022-07-06T12:06:23;22.30;94.00
54930;DHT22;40833;53.238;6.576;2022-07-06T12:08:50;22.50;93.90
54930;DHT22;40833;53.238;6.576;2022-07-06T12:11:21;22.40;93.80
54930;DHT22;40833;53.238;6.576;2022-07-06T12:13:48;22.50;93.70
54930;DHT22;40833;53.238;6.576;2022-07-06T12:16:15;22.60;94.20
54930;DHT22;40833;53.238;6.576;2022-07-06T12:18:43;22.70;93.50
54930;DHT22;40833;53.238;6.576;2022-07-06T12:21:13;22.70;92.70
54930;DHT22;40833;53.238;6.576;2022-07-06T12:23:43;22.60;92.30
54930;DHT22;40833;53.238;6.576;2022-07-06T12:26:10;22.70;92.00
54930;DHT22;40833;53.238;6.576;2022-07-06T12:28:36;22.70;92.90
54930;DHT22;40833;53.238;6.576;2022-07-06T12:31:03;22.60;92.10
54930;DHT22;40833;53.238;6.576;2022-07-06T12:33:29;22.50;92.50
54930;DHT22;40833;53.238;6.576;2022-07-06T12:35:54;22.50;93.10
54930;DHT22;40833;53.238;6.576;2022-07-06T12:38:24;22.60;93.20
54930;DHT22;40833;53.238;6.576;2022-07-06T12:40:50;22.70;92.10
54930;DHT22;40833;53.238;6.576;2022-07-06T12:43:39;22.80;91.80
54930;DHT22;40833;53.238;6.576;2022-07-06T12:46:27;22.80;91.60
54930;DHT22;40833;53.238;6.576;2022-07-06T12:48:56;22.80;91.30
54930;DHT22;40833;53.238;6.576;2022-07-06T12:51:22;22.60;92.10
54930;DHT22;40833;53.238;6.576;2022-07-06T12:53:48;22.40;92.10
54930;DHT22;40833;53.238;6.576;2022-07-06T12:56:14;22.20;92.20
54930;DHT22;40833;53.238;6.576;2022-07-06T12:58:55;22.00;92.40
54930;DHT22;40833;53.238;6.576;2022-07-06T13:01:21;21.90;92.40
54930;DHT22;40833;53.238;6.576;2022-07-06T13:03:47;21.80;92.90
54930;DHT22;40833;53.238;6.576;2022-07-06T13:06:35;21.80;93.00
54930;DHT22;40833;53.238;6.576;2022-07-06T13:09:03;21.70;92.70
54930;DHT22;40833;53.238;6.576;2022-07-06T13:11:28;21.50;93.10
54930;DHT22;40833;53.238;6.576;2022-07-06T13:13:54;21.60;93.80
54930;DHT22;40833;53.238;6.576;2022-07-06T13:16:20;21.70;93.90
54930;DHT22;40833;53.238;6.576;2022-07-06T13:18:47;21.80;93.80
54930;DHT22;40833;53.238;6.576;2022-07-06T13:21:13;22.00;93.80
54930;DHT22;40833;53.238;6.576;2022-07-06T13:23:39;22.10;92.90
54930;DHT22;40833;53.238;6.576;2022-07-06T13:26:05;22.00;92.60
54930;DHT22;40833;53.238;6.576;2022-07-06T13:28:30;21.90;92.80
54930;DHT22;40833;53.238;6.576;2022-07-06T13:30:56;21.80;93.40
54930;DHT22;40833;53.238;6.576;2022-07-06T13:33:22;21.70;93.20
54930;DHT22;40833;53.238;6.576;2022-07-06T13:35:47;21.40;92.10
54930;DHT22;40833;53.238;6.576;2022-07-06T13:38:13;21.30;92.50
54930;DHT22;40833;53.238;6.576;2022-07-06T13:40:39;21.20;92.90
54930;DHT22;40833;53.238;6.576;2022-07-06T13:43:04;21.30;93.10
54930;DHT22;40833;53.238;6.576;2022-07-06T13:45:30;21.30;93.00
54930;DHT22;40833;53.238;6.576;2022-07-06T13:47:56;21.20;92.80
54930;DHT22;40833;53.238;6.576;2022-07-06T13:50:21;21.10;92.80
54930;DHT22;40833;53.238;6.576;2022-07-06T13:52:47;21.00;92.60
54930;DHT22;40833;53.238;6.576;2022-07-06T13:55:13;21.00;92.70
54930;DHT22;40833;53.238;6.576;2022-07-06T13:57:39;20.90;92.90
54930;DHT22;40833;53.238;6.576;2022-07-06T14:00:08;20.90;93.20
54930;DHT22;40833;53.238;6.576;2022-07-06T14:02:33;20.80;93.20
54930;DHT22;40833;53.238;6.576;2022-07-06T14:04:59;20.80;93.40
54930;DHT22;40833;53.238;6.576;2022-07-06T14:07:25;20.70;93.00
54930;DHT22;40833;53.238;6.576;2022-07-06T14:09:50;20.60;93.20
54930;DHT22;40833;53.238;6.576;2022-07-06T14:12:17;20.60;93.80
54930;DHT22;40833;53.238;6.576;2022-07-06T14:14:43;20.50;93.80
54930;DHT22;40833;53.238;6.576;2022-07-06T14:17:09;20.30;93.30
54930;DHT22;40833;53.238;6.576;2022-07-06T14:19:34;20.20;93.90
54930;DHT22;40833;53.238;6.576;2022-07-06T14:22:00;20.00;94.40
54930;DHT22;40833;53.238;6.576;2022-07-06T14:24:26;20.00;94.80
54930;DHT22;40833;53.238;6.576;2022-07-06T14:26:51;20.00;94.90
54930;DHT22;40833;53.238;6.576;2022-07-06T14:29:17;20.00;95.10
54930;DHT22;40833;53.238;6.576;2022-07-06T14:31:43;20.10;95.30
54930;DHT22;40833;53.238;6.576;2022-07-06T14:34:08;20.10;95.50
54930;DHT22;40833;53.238;6.576;2022-07-06T14:36:35;20.00;95.80
54930;DHT22;40833;53.238;6.576;2022-07-06T14:39:03;19.90;96.20
54930;DHT22;40833;53.238;6.576;2022-07-06T14:41:29;19.80;96.70
54930;DHT22;40833;53.238;6.576;2022-07-06T14:43:55;19.60;97.60
54930;DHT22;40833;53.238;6.576;2022-07-06T14:46:21;19.60;98.40
54930;DHT22;40833;53.238;6.576;2022-07-06T14:48:46;19.50;99.10
54930;DHT22;40833;53.238;6.576;2022-07-06T14:51:12;19.50;99.60
54930;DHT22;40833;53.238;6.576;2022-07-06T14:53:38;19.50;99.90
54930;DHT22;40833;53.238;6.576;2022-07-06T14:56:04;19.40;99.90
54930;DHT22;40833;53.238;6.576;2022-07-06T14:58:30;19.40;99.90
54930;DHT22;40833;53.238;6.576;2022-07-06T15:00:55;19.30;99.90
54930;DHT22;40833;53.238;6.576;2022-07-06T15:03:21;19.20;99.90
54930;DHT22;40833;53.238;6.576;2022-07-06T15:05:47;19.00;99.90
54930;DHT22;40833;53.238;6.576;2022-07-06T15:08:14;18.60;99.90
54930;DHT22;40833;53.238;6.576;2022-07-06T15:10:44;18.40;99.90
54930;DHT22;40833;53.238;6.576;2022-07-06T15:13:10;18.20;99.90
54930;DHT22;40833;53.238;6.576;2022-07-06T15:15:36;18.10;99.90
54930;DHT22;40833;53.238;6.576;2022-07-06T15:18:03;18.00;99.90
54930;DHT22;40833;53.238;6.576;2022-07-06T15:20:29;18.00;99.90
54930;DHT22;40833;53.238;6.576;2022-07-06T15:22:54;18.00;99.90
54930;DHT22;40833;53.238;6.576;2022-07-06T15:25:20;18.10;99.90
54930;DHT22;40833;53.238;6.576;2022-07-06T15:27:47;18.00;99.90
54930;DHT22;40833;53.238;6.576;2022-07-06T15:30:13;18.00;99.90
54930;DHT22;40833;53.238;6.576;2022-07-06T15:32:39;17.90;99.90
54930;DHT22;40833;53.238;6.576;2022-07-06T15:35:05;18.00;99.90
54930;DHT22;40833;53.238;6.576;2022-07-06T15:37:35;18.00;99.90
54930;DHT22;40833;53.238;6.576;2022-07-06T15:40:04;18.10;99.90
54930;DHT22;40833;53.238;6.576;2022-07-06T15:42:31;18.10;99.90
54930;DHT22;40833;53.238;6.576;2022-07-06T15:44:57;18.00;99.90
54930;DHT22;40833;53.238;6.576;2022-07-06T15:47:23;17.80;99.90